createdAt,value
2023-04-18T00:03:05.896Z,9.31
2023-04-18T00:06:13.224Z,9.09
2023-04-18T00:09:24.761Z,9.25
2023-04-18T00:12:30.362Z,9.48
2023-04-18T00:15:37.298Z,12.90
2023-04-18T00:18:43.439Z,9.85
2023-04-18T00:21:49.977Z,9.63
2023-04-18T00:24:58.174Z,9.98
2023-04-18T00:28:04.522Z,10.28
2023-04-18T00:31:10.155Z,9.74
2023-04-18T00:34:16.541Z,9.97
2023-04-18T00:37:24.529Z,8.41
2023-04-18T00:40:34.043Z,8.83
2023-04-18T00:43:39.756Z,8.89
2023-04-18T00:46:46.505Z,8.82
2023-04-18T00:49:52.657Z,8.32
2023-04-18T00:53:00.012Z,7.69
2023-04-18T00:56:09.107Z,7.93
2023-04-18T00:59:17.267Z,8.32
2023-04-18T01:02:26.455Z,8.31
2023-04-18T01:05:33.280Z,8.08
2023-04-18T01:08:40.232Z,8.33
2023-04-18T01:11:49.347Z,8.28
2023-04-18T01:14:55.150Z,8.61
2023-04-18T01:18:03.761Z,8.22
2023-04-18T01:21:10.172Z,8.43
2023-04-18T01:24:21.811Z,8.57
2023-04-18T01:27:27.517Z,8.37
2023-04-18T01:30:33.957Z,8.69
2023-04-18T01:33:39.701Z,9.29
2023-04-18T01:36:48.571Z,9.81
2023-04-18T01:39:58.465Z,10.16
2023-04-18T01:43:04.838Z,10.75
2023-04-18T01:46:11.670Z,10.82
2023-04-18T01:49:19.146Z,10.61
2023-04-18T01:52:24.734Z,10.72
2023-04-18T01:55:33.724Z,10.29
2023-04-18T01:58:39.630Z,10.31
2023-04-18T02:01:46.253Z,9.75
2023-04-18T02:04:52.130Z,10.66
2023-04-18T02:07:59.444Z,10.62
2023-04-18T02:11:08.498Z,10.49
2023-04-18T02:14:15.167Z,11.18
2023-04-18T02:17:21.693Z,10.59
2023-04-18T02:20:28.876Z,9.78
2023-04-18T02:23:34.560Z,10.59
2023-04-18T02:26:43.641Z,10.43
2023-04-18T02:29:49.288Z,9.92
2023-04-18T02:32:57.282Z,9.97
2023-04-18T02:36:02.941Z,9.68
2023-04-18T02:39:09.281Z,9.78
2023-04-18T02:42:17.576Z,10.00
2023-04-18T02:45:24.254Z,10.04
2023-04-18T02:48:29.987Z,9.34
2023-04-18T02:51:36.774Z,10.17
2023-04-18T02:54:42.652Z,9.16
2023-04-18T02:57:59.222Z,9.30
2023-04-18T03:01:37.871Z,8.91
2023-04-18T03:04:48.643Z,9.93
2023-04-18T03:07:54.411Z,8.63
2023-04-18T03:11:01.085Z,9.90
2023-04-18T03:14:11.776Z,8.32
2023-04-18T03:17:30.196Z,9.26
2023-04-18T03:20:37.809Z,9.37
2023-04-18T03:23:46.687Z,8.13
2023-04-18T03:26:53.224Z,9.14
2023-04-18T03:30:07.436Z,9.79
2023-04-18T03:33:15.009Z,9.38
2023-04-18T03:36:25.494Z,9.77
2023-04-18T03:39:32.887Z,10.35
2023-04-18T03:42:42.412Z,9.64
2023-04-18T03:45:52.580Z,9.61
2023-04-18T03:48:59.564Z,10.21
2023-04-18T03:52:05.634Z,10.45
2023-04-18T03:55:13.642Z,10.83
2023-04-18T03:58:23.930Z,10.50
2023-04-18T04:01:34.817Z,10.49
2023-04-18T04:04:41.226Z,11.22
2023-04-18T04:07:49.795Z,11.20
2023-04-18T04:10:56.520Z,11.70
2023-04-18T04:14:03.855Z,11.61
2023-04-18T04:17:19.841Z,11.67
2023-04-18T04:20:27.054Z,12.12
2023-04-18T04:23:46.544Z,12.77
2023-04-18T04:27:04.103Z,13.51
2023-04-18T04:30:14.022Z,14.21
2023-04-18T04:33:25.740Z,14.22
2023-04-18T04:36:35.075Z,14.34
2023-04-18T04:39:43.622Z,14.84
2023-04-18T04:43:20.842Z,14.85
2023-04-18T04:46:29.606Z,19.51
2023-04-18T04:49:39.326Z,15.86
2023-04-18T04:52:46.267Z,16.29
2023-04-18T04:55:53.676Z,16.38
2023-04-18T04:59:02.152Z,16.53
2023-04-18T05:02:15.119Z,16.55
2023-04-18T05:05:24.288Z,16.64
2023-04-18T05:08:30.162Z,17.74
2023-04-18T05:11:36.497Z,16.76
2023-04-18T05:14:42.099Z,16.90
2023-04-18T05:17:48.541Z,16.61
2023-04-18T05:20:57.095Z,16.62
2023-04-18T05:24:03.443Z,16.66
2023-04-18T05:27:09.995Z,16.95
2023-04-18T05:30:16.852Z,16.59
2023-04-18T05:33:22.524Z,15.90
2023-04-18T05:36:32.015Z,16.39
2023-04-18T05:39:37.677Z,15.77
2023-04-18T05:42:44.050Z,15.92
2023-04-18T05:45:50.768Z,15.65
2023-04-18T05:48:57.168Z,15.54
2023-04-18T05:52:05.484Z,14.84
2023-04-18T05:55:12.864Z,15.36
2023-04-18T05:58:18.631Z,15.19
2023-04-18T06:01:25.186Z,15.34
2023-04-18T06:04:30.991Z,15.23
2023-04-18T06:07:40.229Z,14.89
2023-04-18T06:10:46.126Z,14.79
2023-04-18T06:13:52.648Z,14.70
2023-04-18T06:16:58.459Z,14.51
2023-04-18T06:20:06.437Z,14.58
2023-04-18T06:23:14.807Z,14.99
2023-04-18T06:26:21.374Z,15.45
2023-04-18T06:29:30.533Z,14.95
2023-04-18T06:32:37.226Z,15.26
2023-04-18T06:35:43.236Z,14.49
2023-04-18T06:38:52.586Z,15.03
2023-04-18T06:41:58.369Z,14.06
2023-04-18T06:45:10.995Z,14.39
2023-04-18T06:48:16.974Z,15.16
2023-04-18T06:51:23.409Z,14.88
2023-04-18T06:54:31.733Z,14.89
2023-04-18T06:57:38.379Z,14.69
2023-04-18T07:00:44.396Z,14.71
2023-04-18T07:03:51.206Z,14.98
2023-04-18T07:06:57.133Z,15.05
2023-04-18T07:10:06.446Z,14.94
2023-04-18T07:13:12.151Z,13.74
2023-04-18T07:16:18.707Z,13.00
2023-04-18T07:19:24.277Z,12.62
2023-04-18T07:22:30.603Z,12.61
2023-04-18T07:25:38.980Z,12.47
2023-04-18T07:28:45.394Z,12.58
2023-04-18T07:31:51.781Z,13.43
2023-04-18T07:34:59.365Z,13.09
2023-04-18T07:38:05.238Z,12.73
2023-04-18T07:41:14.177Z,12.33
2023-04-18T07:44:21.718Z,12.55
2023-04-18T07:47:31.878Z,12.68
2023-04-18T07:50:38.379Z,12.85
2023-04-18T07:53:44.868Z,12.52
2023-04-18T07:56:53.301Z,12.57
2023-04-18T07:59:59.744Z,12.52
2023-04-18T08:03:07.887Z,12.85
2023-04-18T08:06:14.443Z,11.88
2023-04-18T08:09:20.818Z,12.01
2023-04-18T08:12:29.879Z,11.73
2023-04-18T08:15:35.514Z,11.45
2023-04-18T08:18:41.925Z,11.59
2023-04-18T08:21:47.548Z,12.08
2023-04-18T08:25:04.216Z,11.36
2023-04-18T08:28:13.916Z,11.17
2023-04-18T08:31:20.448Z,11.79
2023-04-18T08:34:26.626Z,11.33
2023-04-18T08:37:35.485Z,11.36
2023-04-18T08:40:41.621Z,11.58
2023-04-18T08:43:55.924Z,11.09
2023-04-18T08:47:04.178Z,10.93
2023-04-18T08:50:13.051Z,10.69
2023-04-18T08:53:19.562Z,10.67
2023-04-18T08:56:26.232Z,10.29
2023-04-18T08:59:35.865Z,10.23
2023-04-18T09:02:47.247Z,9.49
2023-04-18T09:06:12.711Z,9.29
2023-04-18T09:09:19.879Z,9.24
2023-04-18T09:12:27.535Z,8.92
2023-04-18T09:15:36.862Z,8.89
2023-04-18T09:18:42.560Z,8.87
2023-04-18T09:21:49.166Z,8.68
2023-04-18T09:24:58.379Z,8.72
2023-04-18T09:28:07.094Z,8.56
2023-04-18T09:31:17.710Z,8.85
2023-04-18T09:34:26.649Z,8.14
2023-04-18T09:37:32.865Z,8.01
2023-04-18T09:40:39.636Z,8.43
2023-04-18T09:43:46.396Z,7.81
2023-04-18T09:46:55.641Z,7.79
2023-04-18T09:50:01.456Z,7.70
2023-04-18T09:53:11.547Z,7.96
2023-04-18T09:56:28.465Z,8.07
2023-04-18T10:03:08.526Z,7.62
2023-04-18T10:06:18.957Z,7.47
2023-04-18T10:09:26.527Z,7.55
2023-04-18T10:12:33.217Z,7.26
2023-04-18T10:15:41.763Z,6.66
2023-04-18T10:18:54.436Z,7.09
2023-04-18T10:22:03.971Z,6.83
2023-04-18T10:25:11.466Z,6.73
2023-04-18T10:28:17.323Z,7.06
2023-04-18T10:31:26.106Z,6.73
2023-04-18T10:34:34.602Z,6.44
2023-04-18T10:37:54.390Z,6.48
2023-04-18T10:41:23.000Z,6.63
2023-04-18T10:44:29.430Z,6.65
2023-04-18T10:47:35.260Z,6.29
2023-04-18T10:51:16.118Z,5.99
2023-04-18T10:54:33.087Z,6.37
2023-04-18T10:57:45.988Z,6.33
2023-04-18T11:00:56.563Z,6.27
2023-04-18T11:04:03.313Z,6.60
2023-04-18T11:07:11.744Z,6.07
2023-04-18T11:10:22.910Z,6.25
2023-04-18T11:13:29.036Z,6.03
2023-04-18T11:16:37.730Z,5.81
2023-04-18T11:19:43.892Z,5.99
2023-04-18T11:22:55.284Z,5.83
2023-04-18T11:26:01.975Z,5.98
2023-04-18T11:29:09.606Z,6.41
2023-04-18T11:32:15.609Z,6.52
2023-04-18T11:35:23.015Z,6.35
2023-04-18T11:38:34.817Z,5.88
2023-04-18T11:41:48.511Z,5.85
2023-04-18T11:44:54.715Z,6.44
2023-04-18T11:48:03.507Z,6.21
2023-04-18T11:51:10.871Z,5.59
2023-04-18T11:54:45.660Z,5.85
2023-04-18T11:57:56.989Z,5.99
2023-04-18T12:01:18.011Z,5.67
2023-04-18T12:04:23.808Z,6.02
2023-04-18T12:07:39.788Z,5.78
2023-04-18T12:10:55.129Z,5.78
2023-04-18T12:14:03.522Z,5.89
2023-04-18T12:17:09.784Z,5.68
2023-04-18T12:20:18.831Z,6.08
2023-04-18T12:23:37.407Z,6.02
2023-04-18T12:26:52.752Z,6.15
2023-04-18T12:29:58.374Z,6.44
2023-04-18T12:33:06.997Z,6.87
2023-04-18T12:36:13.228Z,6.35
2023-04-18T12:39:19.684Z,6.18
2023-04-18T12:42:30.868Z,5.85
2023-04-18T12:45:37.445Z,5.76
2023-04-18T12:48:43.204Z,5.63
2023-04-18T12:51:49.724Z,5.86
2023-04-18T12:54:56.544Z,5.87
2023-04-18T12:58:05.783Z,5.80
2023-04-18T13:01:11.457Z,5.47
2023-04-18T13:04:18.122Z,6.02
2023-04-18T13:07:24.034Z,5.78
2023-04-18T13:10:30.474Z,5.00
2023-04-18T13:13:39.179Z,4.61
2023-04-18T13:16:45.750Z,4.83
2023-04-18T13:19:52.020Z,4.81
2023-04-18T13:22:58.481Z,5.10
2023-04-18T13:26:04.214Z,4.99
2023-04-18T13:29:13.570Z,4.93
2023-04-18T13:32:19.531Z,4.86
2023-04-18T13:35:40.098Z,5.17
2023-04-18T13:38:46.029Z,4.71
2023-04-18T13:41:57.327Z,4.59
2023-04-18T13:45:06.080Z,4.53
2023-04-18T13:48:14.453Z,5.04
2023-04-18T13:51:21.961Z,4.96
2023-04-18T13:54:29.772Z,4.90
2023-04-18T13:57:37.521Z,5.11
2023-04-18T14:00:46.624Z,4.86
2023-04-18T14:03:52.345Z,4.93
2023-04-18T14:06:58.934Z,5.08
2023-04-18T14:10:04.470Z,4.73
2023-04-18T14:13:10.887Z,4.83
2023-04-18T14:16:19.441Z,6.09
2023-04-18T14:19:25.821Z,6.74
2023-04-18T14:22:31.506Z,6.76
2023-04-18T14:25:38.245Z,7.07
2023-04-18T14:28:43.984Z,6.88
2023-04-18T14:31:53.721Z,7.11
2023-04-18T14:34:59.384Z,6.67
2023-04-18T14:38:05.934Z,6.62
2023-04-18T14:41:13.367Z,6.80
2023-04-18T14:44:20.223Z,6.68
2023-04-18T14:47:32.034Z,6.57
2023-04-18T14:50:39.715Z,6.74
2023-04-18T14:53:45.893Z,7.00
2023-04-18T14:56:53.012Z,7.20
2023-04-18T14:59:58.767Z,7.31
2023-04-18T15:03:11.161Z,6.81
2023-04-18T15:06:20.760Z,6.32
2023-04-18T15:09:27.393Z,5.99
2023-04-18T15:12:33.934Z,5.92
2023-04-18T15:15:41.256Z,6.06
2023-04-18T15:18:49.542Z,6.15
2023-04-18T15:21:55.883Z,6.49
2023-04-18T15:25:01.554Z,10.47
2023-04-18T15:28:08.398Z,7.90
2023-04-18T15:31:14.582Z,7.42
2023-04-18T15:34:23.546Z,8.39
2023-04-18T15:37:29.259Z,8.77
2023-04-18T15:40:36.471Z,10.77
2023-04-18T15:43:42.784Z,9.16
2023-04-18T15:46:49.287Z,8.14
2023-04-18T15:49:57.582Z,9.58
2023-04-18T15:53:04.702Z,9.40
2023-04-18T15:56:10.476Z,9.08
2023-04-18T15:59:17.192Z,9.19
2023-04-18T16:02:22.818Z,9.70
2023-04-18T16:05:31.974Z,9.31
2023-04-18T16:08:37.740Z,8.90
2023-04-18T16:11:44.204Z,9.68
2023-04-18T16:14:49.805Z,9.93
2023-04-18T16:17:56.567Z,9.95
2023-04-18T16:21:05.252Z,10.86
2023-04-18T16:24:12.612Z,10.30
2023-04-18T16:27:18.448Z,9.20
2023-04-18T16:30:24.921Z,9.47
2023-04-18T16:33:30.739Z,9.97
2023-04-18T16:36:39.766Z,10.69
2023-04-18T16:39:45.562Z,12.07
2023-04-18T16:42:53.056Z,10.37
2023-04-18T16:46:00.470Z,10.79
2023-04-18T16:49:06.831Z,10.71
2023-04-18T16:52:16.773Z,11.13
2023-04-18T16:55:23.173Z,12.21
2023-04-18T16:58:28.842Z,21.54
2023-04-18T17:01:35.306Z,15.51
2023-04-18T17:04:42.422Z,13.42
2023-04-18T17:07:51.892Z,12.31
2023-04-18T17:10:59.596Z,16.48
2023-04-18T17:14:05.908Z,16.18
2023-04-18T17:17:11.601Z,14.50
2023-04-18T17:20:19.381Z,15.57
2023-04-18T17:23:27.760Z,13.45
2023-04-18T17:26:35.325Z,12.20
2023-04-18T17:29:41.156Z,12.98
2023-04-18T17:32:49.352Z,12.56
2023-04-18T17:35:55.130Z,14.80
2023-04-18T17:39:06.732Z,12.88
2023-04-18T17:42:12.578Z,13.81
2023-04-18T17:45:20.606Z,13.72
2023-04-18T17:48:29.181Z,16.48
2023-04-18T17:51:36.166Z,14.14
2023-04-18T17:54:44.288Z,12.93
2023-04-18T17:57:50.972Z,16.42
2023-04-18T18:00:56.928Z,13.88
2023-04-18T18:04:04.003Z,13.95
2023-04-18T18:07:09.816Z,14.73
2023-04-18T18:10:23.406Z,14.34
2023-04-18T18:13:29.303Z,14.58
2023-04-18T18:16:35.788Z,15.16
2023-04-18T18:19:41.499Z,14.79
2023-04-18T18:22:48.155Z,14.94
2023-04-18T18:25:56.519Z,14.05
2023-04-18T18:29:09.320Z,14.08
2023-04-18T18:32:15.020Z,16.04
2023-04-18T18:35:21.809Z,14.53
2023-04-18T18:38:27.453Z,16.82
2023-04-18T18:41:36.520Z,20.69
2023-04-18T18:44:42.176Z,13.82
2023-04-18T18:47:49.079Z,17.01
2023-04-18T18:50:56.687Z,14.73
2023-04-18T18:54:03.117Z,13.36
2023-04-18T18:57:11.448Z,14.49
2023-04-18T19:00:18.450Z,14.95
2023-04-18T19:03:24.288Z,14.58
2023-04-18T19:06:31.063Z,15.40
2023-04-18T19:09:38.801Z,16.84
2023-04-18T19:12:47.863Z,15.23
2023-04-18T19:15:54.220Z,15.75
2023-04-18T19:19:01.032Z,15.67
2023-04-18T19:22:06.993Z,14.64
2023-04-18T19:25:14.879Z,13.46
2023-04-18T19:28:23.220Z,18.66
2023-04-18T19:31:29.914Z,18.65
2023-04-18T19:34:36.365Z,15.28
2023-04-18T19:37:42.886Z,15.94
2023-04-18T19:40:49.115Z,21.50
2023-04-18T19:43:58.152Z,21.60
2023-04-18T19:47:04.432Z,22.97
2023-04-18T19:50:12.718Z,19.37
2023-04-18T19:53:19.113Z,17.18
2023-04-18T19:56:25.593Z,19.21
2023-04-18T19:59:33.737Z,18.86
2023-04-18T20:02:40.592Z,19.99
2023-04-18T20:05:46.330Z,19.26
2023-04-18T20:08:53.671Z,19.26
2023-04-18T20:12:00.740Z,19.28
2023-04-18T20:15:11.771Z,21.06
2023-04-18T20:18:17.407Z,23.42
2023-04-18T20:21:23.898Z,24.55
2023-04-18T20:24:30.309Z,24.91
2023-04-18T20:27:36.827Z,22.81
2023-04-18T20:30:45.929Z,23.13
2023-04-18T20:33:52.341Z,23.11
2023-04-18T20:36:59.013Z,23.08
2023-04-18T20:40:10.453Z,24.30
2023-04-18T20:43:17.622Z,24.02
2023-04-18T20:46:26.707Z,24.92
2023-04-18T20:49:34.339Z,23.72
2023-04-18T20:52:43.082Z,24.22
2023-04-18T20:55:48.681Z,23.86
2023-04-18T20:58:55.122Z,24.29
2023-04-18T21:02:03.738Z,23.87
2023-04-18T21:05:11.507Z,25.82
2023-04-18T21:08:17.309Z,24.98
2023-04-18T21:11:23.815Z,25.28
2023-04-18T21:14:29.425Z,26.06
2023-04-18T21:17:38.496Z,26.21
2023-04-18T21:20:44.349Z,28.00
2023-04-18T21:23:50.834Z,30.94
2023-04-18T21:26:58.013Z,30.30
2023-04-18T21:30:05.171Z,29.67
2023-04-18T21:33:13.512Z,30.65
2023-04-18T21:36:19.943Z,32.43
2023-04-18T21:39:25.648Z,34.17
2023-04-18T21:42:32.063Z,33.84
2023-04-18T21:45:39.773Z,38.65
2023-04-18T21:48:51.293Z,40.96
2023-04-18T21:51:57.814Z,39.94
2023-04-18T21:55:05.160Z,40.89
2023-04-18T21:58:10.789Z,38.01
2023-04-18T22:01:17.213Z,35.56
2023-04-18T22:04:26.765Z,34.81
2023-04-18T22:07:34.237Z,32.55
2023-04-18T22:10:42.455Z,32.78
2023-04-18T22:13:50.301Z,33.23
2023-04-18T22:16:56.019Z,32.64
2023-04-18T22:20:05.982Z,32.42
2023-04-18T22:23:12.299Z,33.96
2023-04-18T22:26:18.692Z,34.07
2023-04-18T22:29:25.713Z,34.48
2023-04-18T22:32:32.139Z,35.88
2023-04-18T22:35:42.529Z,36.24
2023-04-18T22:38:56.686Z,35.81
2023-04-18T22:42:02.912Z,36.65
2023-04-18T22:45:12.933Z,36.07
2023-04-18T22:48:19.097Z,35.79
2023-04-18T22:51:28.970Z,34.90
2023-04-18T22:54:41.468Z,35.48
2023-04-18T22:57:47.838Z,36.45
2023-04-18T23:00:53.771Z,35.85
2023-04-18T23:04:00.542Z,36.57
2023-04-18T23:07:09.091Z,37.89
2023-04-18T23:10:15.591Z,36.12
2023-04-18T23:13:21.400Z,35.84
2023-04-18T23:16:28.348Z,34.79
2023-04-18T23:19:34.062Z,34.38
2023-04-18T23:22:43.409Z,36.64
2023-04-18T23:25:48.993Z,37.00
2023-04-18T23:28:55.665Z,35.65
2023-04-18T23:32:01.323Z,33.35
2023-04-18T23:35:09.261Z,32.45
2023-04-18T23:38:17.440Z,33.59
2023-04-18T23:41:23.935Z,34.46
2023-04-18T23:44:29.610Z,35.74
2023-04-18T23:47:36.037Z,36.76
2023-04-18T23:50:48.893Z,36.27
2023-04-18T23:53:58.013Z,35.71
2023-04-18T23:57:06.521Z,36.67
